Time;durP1;ratioP1;P1;durP2;ratioP2;P2;SDS_P1;SDS_P2;PMS_P1;PMS_P2;Temp;Humidity;BMP_temperature;BMP_pressure;BME280_temperature;BME280_humidity;BME280_pressure;Samples;Min_cycle;Max_cycle;Signal;HPM_P1;HPM_P2
2023/08/21 00:01:19;;;;;;;13.57;4.20;;;;;;;16.65;100.00;101755.31;4996146;28;20033;-72
2023/08/21 00:03:45;;;;;;;17.90;4.10;;;;;;;16.59;100.00;101742.53;5011662;28;20028;-72
2023/08/21 00:06:10;;;;;;;13.13;3.80;;;;;;;16.55;100.00;101737.69;5039453;28;20455;-73
2023/08/21 00:08:36;;;;;;;11.80;3.15;;;;;;;16.50;100.00;101745.47;5023337;28;20071;-73
2023/08/21 00:11:01;;;;;;;8.93;4.17;;;;;;;16.46;100.00;101740.44;5031444;28;20041;-72
2023/08/21 00:15:54;;;;;;;11.02;3.67;;;;;;;16.42;100.00;101747.19;4990979;28;20121;-88
2023/08/21 00:18:19;;;;;;;14.27;3.60;;;;;;;16.36;100.00;101749.75;5000872;28;20092;-88
2023/08/21 00:20:44;;;;;;;10.70;4.77;;;;;;;16.37;100.00;101740.66;5010403;28;20025;-88
2023/08/21 00:23:10;;;;;;;9.93;3.80;;;;;;;16.37;100.00;101748.75;4997898;28;20026;-88
2023/08/21 00:25:35;;;;;;;8.37;3.90;;;;;;;16.35;100.00;101746.22;5001196;28;20033;-88
2023/08/21 00:28:01;;;;;;;10.90;4.70;;;;;;;16.28;100.00;101745.25;4984732;28;20040;-89
2023/08/21 00:30:26;;;;;;;6.37;3.33;;;;;;;16.21;100.00;101736.19;4994454;28;20049;-88
2023/08/21 00:32:52;;;;;;;13.85;4.18;;;;;;;16.21;100.00;101742.41;5007005;28;20292;-88
2023/08/21 00:35:18;;;;;;;14.02;3.92;;;;;;;16.17;100.00;101740.22;4983534;28;20034;-89
2023/08/21 00:37:44;;;;;;;8.77;3.47;;;;;;;16.19;100.00;101738.22;4991232;28;20032;-89
2023/08/21 00:40:10;;;;;;;12.27;4.10;;;;;;;16.15;100.00;101735.00;4999359;28;20383;-89
2023/08/21 00:42:35;;;;;;;17.20;4.25;;;;;;;16.14;100.00;101740.59;5015060;28;20037;-88
2023/08/21 00:45:01;;;;;;;11.47;3.53;;;;;;;16.10;100.00;101744.66;5014819;28;20060;-88
2023/08/21 00:47:27;;;;;;;15.45;5.15;;;;;;;16.07;100.00;101745.00;5006374;28;20029;-89
2023/08/21 00:49:52;;;;;;;11.55;3.63;;;;;;;16.02;100.00;101745.53;4986307;28;20497;-88
2023/08/21 00:52:18;;;;;;;11.37;3.57;;;;;;;16.00;100.00;101745.69;5002550;28;20180;-89
2023/08/21 00:54:45;;;;;;;6.85;3.05;;;;;;;15.98;100.00;101741.50;4998189;28;20025;-89
2023/08/21 00:57:10;;;;;;;13.13;3.83;;;;;;;16.00;100.00;101751.06;5015003;28;20025;-88
2023/08/21 00:59:37;;;;;;;10.20;3.92;;;;;;;15.94;100.00;101750.94;4997987;28;20021;-89
2023/08/21 01:02:03;;;;;;;16.83;5.00;;;;;;;15.96;100.00;101744.34;4987922;28;20117;-88
2023/08/21 01:04:29;;;;;;;11.98;4.20;;;;;;;15.98;100.00;101758.47;5011681;28;20156;-88
2023/08/21 01:06:54;;;;;;;9.70;4.07;;;;;;;16.00;100.00;101761.84;5010669;28;20064;-88
2023/08/21 01:09:30;;;;;;;8.00;3.40;;;;;;;15.98;100.00;101755.78;4986154;28;20025;-88
2023/08/21 01:12:25;;;;;;;7.47;3.90;;;;;;;15.96;100.00;101762.38;4987555;28;20293;-89
2023/08/21 01:14:54;;;;;;;15.55;5.65;;;;;;;15.94;100.00;101759.84;4987999;28;20067;-88
2023/08/21 01:17:21;;;;;;;10.90;4.18;;;;;;;15.85;100.00;101749.28;5014082;28;20041;-89
2023/08/21 01:19:49;;;;;;;11.98;4.93;;;;;;;15.80;100.00;101749.78;4989575;28;20483;-90
2023/08/21 01:22:15;;;;;;;7.28;4.18;;;;;;;15.73;100.00;101738.91;5006171;28;20049;-88
2023/08/21 01:24:40;;;;;;;13.97;3.87;;;;;;;15.75;100.00;101744.91;4989407;28;20484;-88
2023/08/21 01:27:06;;;;;;;11.93;4.70;;;;;;;15.75;100.00;101747.59;4997987;28;20043;-89
2023/08/21 01:29:33;;;;;;;15.20;4.13;;;;;;;15.73;100.00;101743.41;4996410;28;20093;-89
2023/08/21 01:32:07;;;;;;;11.98;4.30;;;;;;;15.69;100.00;101739.38;4990861;28;20033;-89
2023/08/21 01:34:37;;;;;;;20.75;5.97;;;;;;;15.75;100.00;101749.47;4996122;28;20037;-87
2023/08/21 01:37:04;;;;;;;15.40;5.15;;;;;;;15.73;100.00;101759.56;5007553;28;20029;-88
2023/08/21 01:39:29;;;;;;;18.05;4.97;;;;;;;15.63;100.00;101748.97;5013474;28;20037;-89
2023/08/21 01:41:57;;;;;;;7.50;3.80;;;;;;;15.54;100.00;101753.50;5014008;28;20037;-88
2023/08/21 01:44:23;;;;;;;6.80;3.53;;;;;;;15.49;100.00;101753.19;4997859;28;20017;-88
2023/08/21 01:46:48;;;;;;;12.88;4.88;;;;;;;15.42;100.00;101749.50;5010198;28;20720;-89
2023/08/21 01:49:14;;;;;;;24.02;5.72;;;;;;;15.41;100.00;101750.53;4992665;28;20021;-89
2023/08/21 01:51:39;;;;;;;7.53;3.63;;;;;;;15.40;100.00;101756.91;4985615;28;20033;-89
2023/08/21 01:54:05;;;;;;;11.87;3.87;;;;;;;15.29;100.00;101743.78;5007540;28;20037;-88
2023/08/21 01:56:30;;;;;;;12.30;5.07;;;;;;;15.30;100.00;101742.78;5013073;28;20065;-88
2023/08/21 01:58:55;;;;;;;15.70;5.00;;;;;;;15.25;100.00;101739.78;5002060;28;20034;-88
2023/08/21 02:01:21;;;;;;;12.93;4.20;;;;;;;15.33;100.00;101767.50;4985572;28;20079;-89
2023/08/21 02:03:46;;;;;;;16.63;5.60;;;;;;;15.30;100.00;101757.06;4997144;28;20056;-89
2023/08/21 02:06:12;;;;;;;11.50;5.00;;;;;;;15.29;100.00;101768.84;4999903;28;20037;-88
2023/08/21 02:08:38;;;;;;;;;;;;;;;15.30;100.00;101775.06;4980900;28;20034;-89
2023/08/21 02:11:03;;;;;;;17.63;4.20;;;;;;;15.25;100.00;101762.13;5005201;28;20008;-89
2023/08/21 02:13:29;;;;;;;13.77;4.80;;;;;;;15.29;100.00;101774.25;4996765;28;20446;-89
2023/08/21 02:15:54;;;;;;;9.20;4.40;;;;;;;15.28;100.00;101774.41;5004359;28;20124;-89
2023/08/21 02:18:20;;;;;;;17.67;5.50;;;;;;;15.22;100.00;101772.38;5003501;28;20025;-89
2023/08/21 02:20:47;;;;;;;9.87;3.83;;;;;;;15.11;100.00;101766.31;4998606;28;20045;-89
2023/08/21 02:23:12;;;;;;;22.15;6.60;;;;;;;15.14;100.00;101773.22;4996275;28;20026;-88
2023/08/21 02:25:37;;;;;;;12.03;5.50;;;;;;;15.07;100.00;101778.41;4994744;28;20086;-88
2023/08/21 02:28:04;;;;;;;16.90;5.23;;;;;;;15.08;100.00;101774.75;5008289;28;20025;-89
2023/08/21 02:30:29;;;;;;;19.52;5.53;;;;;;;15.04;100.00;101772.53;5003311;28;20115;-89
2023/08/21 02:32:56;;;;;;;15.50;5.25;;;;;;;15.05;100.00;101766.16;5005745;28;20029;-89
2023/08/21 02:35:21;;;;;;;15.57;6.40;;;;;;;15.05;100.00;101760.78;4996372;28;20030;-89
2023/08/21 02:37:48;;;;;;;26.98;9.88;;;;;;;15.24;100.00;101776.59;4980784;28;20009;-89
2023/08/21 02:40:14;;;;;;;12.77;5.50;;;;;;;15.26;100.00;101785.31;5012991;28;20033;-88
2023/08/21 02:42:39;;;;;;;14.43;6.53;;;;;;;15.27;100.00;101781.63;5012670;28;20116;-88
2023/08/21 02:45:08;;;;;;;27.20;8.95;;;;;;;15.25;100.00;101780.97;4996610;28;20068;-89
2023/08/21 02:47:42;;;;;;;19.02;7.47;;;;;;;15.36;100.00;101780.63;4996474;28;20030;-88
2023/08/21 02:50:09;;;;;;;20.58;7.28;;;;;;;15.24;100.00;101773.03;4988258;28;20032;-88
2023/08/21 02:52:35;;;;;;;16.55;7.78;;;;;;;15.20;100.00;101780.63;5004019;28;20056;-89
2023/08/21 02:55:02;;;;;;;26.42;7.40;;;;;;;15.15;100.00;101769.53;4989441;28;20112;-88
2023/08/21 02:57:28;;;;;;;18.08;7.28;;;;;;;15.06;100.00;101774.06;4990181;28;20019;-88
2023/08/21 02:59:55;;;;;;;26.25;8.32;;;;;;;15.05;100.00;101777.75;4981932;28;20505;-89
2023/08/21 03:02:20;;;;;;;21.83;6.57;;;;;;;15.04;100.00;101777.94;4991238;28;20029;-89
2023/08/21 03:04:46;;;;;;;26.67;10.20;;;;;;;15.00;100.00;101774.72;4990077;28;20036;-88
2023/08/21 03:07:11;;;;;;;14.52;7.00;;;;;;;15.03;100.00;101779.78;4990301;28;20034;-89
2023/08/21 03:09:37;;;;;;;20.80;8.73;;;;;;;15.01;100.00;101776.41;5000612;28;20038;-88
2023/08/21 03:12:03;;;;;;;15.30;6.45;;;;;;;14.91;100.00;101775.72;4997681;28;20091;-89
2023/08/21 03:14:29;;;;;;;21.13;8.23;;;;;;;15.10;100.00;101774.53;5011606;28;20034;-89
2023/08/21 03:16:54;;;;;;;19.85;8.68;;;;;;;15.11;100.00;101785.16;4988176;28;20174;-89
2023/08/21 03:19:20;;;;;;;21.58;8.52;;;;;;;15.13;100.00;101791.22;4988767;28;20033;-88
2023/08/21 03:21:45;;;;;;;17.97;8.07;;;;;;;15.13;100.00;101790.38;4994680;28;20029;-88
2023/08/21 03:24:11;;;;;;;30.77;11.50;;;;;;;15.10;100.00;101780.78;5004019;28;20447;-89
2023/08/21 03:26:37;;;;;;;26.65;12.07;;;;;;;15.26;100.00;101789.84;4988223;28;20029;-88
2023/08/21 03:29:02;;;;;;;36.63;15.20;;;;;;;15.50;100.00;101802.47;4987868;28;20762;-89
2023/08/21 03:31:28;;;;;;;34.65;14.10;;;;;;;15.44;100.00;101798.59;5012099;28;20280;-89
2023/08/21 03:33:53;;;;;;;29.33;12.83;;;;;;;15.42;100.00;101792.53;5000208;28;20127;-88
2023/08/21 03:36:21;;;;;;;27.42;12.38;;;;;;;15.36;100.00;101783.31;5007708;28;20025;-89
2023/08/21 03:38:46;;;;;;;34.15;13.02;;;;;;;15.36;100.00;101786.00;5003553;28;20059;-89
2023/08/21 03:41:12;;;;;;;32.28;13.13;;;;;;;15.37;100.00;101792.22;5012360;28;20029;-89
2023/08/21 03:43:38;;;;;;;38.65;12.10;;;;;;;15.39;100.00;101787.50;4993855;28;20037;-89
2023/08/21 03:46:03;;;;;;;33.83;15.93;;;;;;;15.33;100.00;101786.31;4996923;28;20037;-89
2023/08/21 03:48:29;;;;;;;32.63;13.90;;;;;;;15.28;100.00;101787.84;4995518;28;20101;-89
2023/08/21 03:50:54;;;;;;;32.27;14.90;;;;;;;15.35;100.00;101791.53;4980819;28;20485;-88
2023/08/21 03:53:20;;;;;;;34.57;15.20;;;;;;;15.30;100.00;101780.44;5007317;28;20088;-88
2023/08/21 03:55:45;;;;;;;33.90;15.47;;;;;;;15.22;100.00;101775.06;4993693;28;20550;-89
2023/08/21 03:58:12;;;;;;;47.60;19.17;;;;;;;15.17;100.00;101768.34;4997774;28;20036;-88
2023/08/21 04:00:37;;;;;;;37.63;18.88;;;;;;;15.30;100.00;101786.66;4995319;28;20859;-89
2023/08/21 04:03:03;;;;;;;45.90;20.50;;;;;;;15.35;100.00;101787.00;4983138;28;20032;-89
2023/08/21 04:05:28;;;;;;;59.08;23.55;;;;;;;15.41;100.00;101793.56;4985076;28;20032;-89
2023/08/21 04:07:53;;;;;;;41.13;19.70;;;;;;;15.51;100.00;101791.53;4982025;28;20151;-88
2023/08/21 04:10:19;;;;;;;54.63;23.17;;;;;;;15.58;100.00;101800.59;4987564;28;20026;-89
2023/08/21 04:12:44;;;;;;;47.23;22.23;;;;;;;15.70;100.00;101811.03;4993582;28;20454;-89
2023/08/21 04:15:10;;;;;;;71.27;26.87;;;;;;;15.74;100.00;101815.09;4983123;28;20040;-89
2023/08/21 04:17:35;;;;;;;60.30;23.92;;;;;;;15.78;100.00;101805.66;5015668;28;20033;-89
2023/08/21 04:20:00;;;;;;;78.37;25.97;;;;;;;15.78;100.00;101800.28;4993653;28;20037;-90
2023/08/21 04:22:26;;;;;;;125.07;30.57;;;;;;;15.75;100.00;101806.00;4986502;28;20026;-89
2023/08/21 04:24:51;;;;;;;73.53;25.07;;;;;;;15.78;100.00;101805.66;5017447;28;20083;-89
2023/08/21 04:27:17;;;;;;;96.33;28.97;;;;;;;15.67;100.00;101795.22;4995524;28;20803;-89
2023/08/21 04:29:42;;;;;;;108.70;28.57;;;;;;;15.68;100.00;101805.81;4982345;28;20041;-88
2023/08/21 04:32:07;;;;;;;148.33;27.60;;;;;;;15.61;100.00;101799.44;5003816;28;20464;-90
2023/08/21 04:34:33;;;;;;;86.45;24.00;;;;;;;15.69;100.00;101810.19;5001443;28;20087;-88
2023/08/21 04:36:58;;;;;;;76.53;24.57;;;;;;;15.76;100.00;101807.72;5018061;28;20033;-89
2023/08/21 04:39:24;;;;;;;97.73;26.10;;;;;;;15.78;100.00;101811.03;4988618;28;20775;-89
2023/08/21 04:41:49;;;;;;;142.60;29.73;;;;;;;15.70;100.00;101800.25;4991879;28;20037;-88
2023/08/21 04:44:16;;;;;;;102.88;23.92;;;;;;;15.75;100.00;101798.75;5009819;28;20029;-89
2023/08/21 04:46:42;;;;;;;70.78;23.38;;;;;;;15.87;100.00;101806.50;4991966;28;20025;-89
2023/08/21 04:49:08;;;;;;;143.57;28.10;;;;;;;15.84;100.00;101794.22;5006178;28;20527;-89
2023/08/21 04:51:33;;;;;;;;;;;;;;;15.92;100.00;101796.91;4992840;28;20033;-89
2023/08/21 04:54:01;;;;;;;65.13;20.27;;;;;;;15.85;100.00;101798.59;5030000;28;19975;-88
2023/08/21 04:56:26;;;;;;;65.37;22.13;;;;;;;15.97;100.00;101791.00;4990995;28;20836;-89
2023/08/21 04:58:52;;;;;;;77.45;22.55;;;;;;;15.88;100.00;101787.47;5013376;28;20109;-88
2023/08/21 05:01:18;;;;;;;101.53;25.00;;;;;;;15.87;100.00;101788.47;4996329;28;20491;-90
2023/08/21 05:03:47;;;;;;;106.35;25.15;;;;;;;15.94;100.00;101789.47;4993570;28;20113;-89
2023/08/21 05:06:12;;;;;;;64.13;21.80;;;;;;;16.00;100.00;101783.41;5009716;28;20116;-89
2023/08/21 05:08:37;;;;;;;83.57;22.10;;;;;;;16.00;100.00;101787.94;5002098;28;20053;-90
2023/08/21 05:11:06;;;;;;;79.70;22.48;;;;;;;16.04;100.00;101786.59;4989182;28;20049;-89
2023/08/21 05:13:33;;;;;;;86.88;25.90;;;;;;;16.06;100.00;101792.66;5005862;28;20033;-89
2023/08/21 05:15:59;;;;;;;63.70;22.10;;;;;;;16.15;100.00;101791.59;4987803;28;20034;-89
2023/08/21 05:18:28;;;;;;;61.83;21.05;;;;;;;16.24;100.00;101801.31;4986446;28;20060;-89
2023/08/21 05:20:55;;;;;;;71.00;20.52;;;;;;;16.23;100.00;101798.81;5008904;28;20108;-89
2023/08/21 05:23:21;;;;;;;81.60;21.45;;;;;;;16.13;100.00;101793.63;4993509;28;20025;-88
2023/08/21 05:25:49;;;;;;;59.03;18.35;;;;;;;16.16;100.00;101793.28;4991061;28;20040;-89
2023/08/21 05:28:15;;;;;;;52.58;17.92;;;;;;;16.20;100.00;101788.38;5001197;28;20030;-89
2023/08/21 05:30:40;;;;;;;57.20;18.63;;;;;;;16.21;100.00;101790.91;4982986;28;20036;-88
2023/08/21 05:33:05;;;;;;;52.37;17.37;;;;;;;16.24;100.00;101790.53;4997463;28;20041;-88
2023/08/21 05:35:36;;;;;;;58.72;19.08;;;;;;;16.12;100.00;101785.72;5006087;28;20041;-90
2023/08/21 05:38:03;;;;;;;47.60;18.30;;;;;;;16.29;100.00;101797.28;5003213;28;20050;-89
2023/08/21 05:40:29;;;;;;;52.30;17.65;;;;;;;16.26;100.00;101798.47;5010280;28;20716;-88
2023/08/21 05:42:55;;;;;;;55.55;19.67;;;;;;;16.26;100.00;101790.38;5010898;28;20030;-89
2023/08/21 05:45:20;;;;;;;68.17;20.37;;;;;;;16.28;100.00;101787.53;5002957;28;20368;-89
2023/08/21 05:47:46;;;;;;;59.47;19.17;;;;;;;16.28;100.00;101792.91;4996412;28;20264;-88
2023/08/21 05:50:11;;;;;;;76.63;21.57;;;;;;;16.15;100.00;101796.13;4997106;28;20911;-89
2023/08/21 05:52:37;;;;;;;73.05;22.23;;;;;;;16.17;100.00;101800.34;4989279;28;20176;-91
2023/08/21 05:55:04;;;;;;;57.83;20.40;;;;;;;16.20;100.00;101807.22;4998175;28;20562;-90
2023/08/21 05:57:29;;;;;;;57.65;18.85;;;;;;;16.42;100.00;101808.34;4990330;28;20026;-89
2023/08/21 05:59:55;;;;;;;55.92;18.13;;;;;;;16.45;100.00;101806.13;4990795;28;20029;-88
2023/08/21 06:02:21;;;;;;;37.00;16.10;;;;;;;16.60;100.00;101800.84;4998055;28;20033;-89
2023/08/21 06:04:47;;;;;;;41.88;16.95;;;;;;;16.60;100.00;101806.25;5013443;28;20030;-89
2023/08/21 06:07:12;;;;;;;38.50;16.40;;;;;;;16.67;100.00;101800.97;4990776;28;20592;-88
2023/08/21 06:09:37;;;;;;;42.97;16.80;;;;;;;16.63;100.00;101800.47;5016077;28;20041;-90
2023/08/21 06:12:03;;;;;;;38.53;15.70;;;;;;;16.73;100.00;101808.34;4997427;28;20492;-89
2023/08/21 06:14:31;;;;;;;48.35;17.65;;;;;;;16.85;100.00;101801.56;4997463;28;20063;-88
2023/08/21 06:17:03;;;;;;;38.45;15.57;;;;;;;16.64;100.00;101795.91;5015321;28;20029;-86
2023/08/21 06:19:29;;;;;;;36.22;15.73;;;;;;;16.75;100.00;101800.09;4996394;23;20041;-74
2023/08/21 06:21:55;;;;;;;40.67;15.13;;;;;;;16.91;100.00;101801.88;5009444;28;20061;-74
2023/08/21 06:24:21;;;;;;;40.28;14.95;;;;;;;16.74;100.00;101806.47;5025581;28;20044;-74
2023/08/21 06:26:51;;;;;;;31.02;14.02;;;;;;;17.04;100.00;101810.19;5007377;28;20509;-74
2023/08/21 06:29:17;;;;;;;31.27;13.63;;;;;;;17.03;100.00;101800.44;5009331;28;20068;-74
2023/08/21 06:31:42;;;;;;;35.63;15.00;;;;;;;16.99;100.00;101809.91;5024600;28;20041;-74
2023/08/21 06:34:08;;;;;;;31.00;13.17;;;;;;;16.84;100.00;101807.97;5032640;23;20033;-85
2023/08/21 06:36:33;;;;;;;28.50;12.30;;;;;;;17.21;100.00;101822.56;5016277;28;20037;-85
2023/08/21 06:39:00;;;;;;;28.58;11.85;;;;;;;17.51;100.00;101838.84;5007919;28;20029;-85
2023/08/21 06:41:25;;;;;;;33.03;12.90;;;;;;;17.41;100.00;101828.31;5013902;28;20107;-85
2023/08/21 06:43:51;;;;;;;30.13;14.67;;;;;;;17.08;100.00;101816.94;5018866;28;20030;-85
2023/08/21 06:46:17;;;;;;;31.75;13.15;;;;;;;17.11;100.00;101823.81;5018307;28;20056;-85
2023/08/21 06:48:43;;;;;;;28.30;12.23;;;;;;;17.18;100.00;101820.22;4979722;28;20496;-85
2023/08/21 06:51:09;;;;;;;33.33;12.40;;;;;;;17.10;100.00;101831.09;5021841;28;20044;-85
2023/08/21 06:53:35;;;;;;;;;;;;;;;17.42;100.00;101843.50;5011196;28;20045;-85
2023/08/21 06:56:00;;;;;;;21.25;12.25;;;;;;;17.83;100.00;101824.25;4979354;28;19917;-85
2023/08/21 06:58:26;;;;;;;24.83;12.07;;;;;;;17.91;100.00;101821.47;5013022;28;20092;-85
2023/08/21 07:00:53;;;;;;;28.20;11.80;;;;;;;17.90;100.00;101822.47;4999478;28;20275;-85
2023/08/21 07:03:18;;;;;;;18.05;10.07;;;;;;;18.21;100.00;101836.84;4989508;28;20343;-85
2023/08/21 07:05:48;;;;;;;23.07;9.90;;;;;;;18.11;100.00;101829.84;5002086;28;20050;-85
2023/08/21 07:08:13;;;;;;;31.40;11.50;;;;;;;18.17;100.00;101831.00;4993671;28;20034;-86
2023/08/21 07:10:38;;;;;;;22.07;9.10;;;;;;;18.09;100.00;101818.38;5015353;28;20055;-85
2023/08/21 07:13:04;;;;;;;27.17;12.37;;;;;;;18.52;100.00;101818.56;5009098;28;20059;-85
2023/08/21 07:15:29;;;;;;;24.10;10.60;;;;;;;19.11;100.00;101811.34;5005863;28;20284;-88
2023/08/21 07:17:55;;;;;;;16.73;8.07;;;;;;;19.54;100.00;101792.34;4982951;28;20679;-88
2023/08/21 07:20:21;;;;;;;19.02;9.93;;;;;;;19.84;100.00;101784.03;4991491;28;20030;-89
2023/08/21 07:22:47;;;;;;;16.40;9.80;;;;;;;20.24;100.00;101756.09;4984964;28;20037;-90
2023/08/21 07:25:12;;;;;;;17.83;8.20;;;;;;;20.05;100.00;101699.94;4995199;28;20079;-90
2023/08/21 07:27:38;;;;;;;14.77;7.43;;;;;;;20.16;100.00;101712.91;4977187;28;20041;-90
2023/08/21 07:30:03;;;;;;;20.20;9.43;;;;;;;19.62;100.00;101667.59;5017759;28;20031;-89
2023/08/21 07:32:29;;;;;;;19.23;8.18;;;;;;;19.31;100.00;101701.34;5024984;28;20167;-89
2023/08/21 07:34:54;;;;;;;10.27;5.63;;;;;;;19.00;100.00;101690.06;4983350;28;20037;-89
2023/08/21 07:37:20;;;;;;;14.83;7.00;;;;;;;19.89;100.00;101721.94;5008085;28;20168;-89
2023/08/21 07:39:45;;;;;;;12.25;5.68;;;;;;;20.64;100.00;101655.88;4992825;28;20121;-90
2023/08/21 07:42:12;;;;;;;12.25;5.57;;;;;;;21.22;100.00;101605.53;4995914;28;20112;-89
2023/08/21 07:44:39;;;;;;;12.77;5.45;;;;;;;21.17;100.00;101494.03;5004826;28;20061;-90
2023/08/21 07:47:05;;;;;;;11.38;4.85;;;;;;;21.48;100.00;101466.13;5010549;28;20033;-90
2023/08/21 07:49:31;;;;;;;12.32;5.38;;;;;;;21.67;100.00;101464.34;5002643;28;20189;-89
2023/08/21 07:51:57;;;;;;;8.27;3.42;;;;;;;22.21;100.00;101397.63;4999886;28;20043;-91
2023/08/21 07:54:23;;;;;;;14.60;5.43;;;;;;;22.55;100.00;101306.47;4975577;28;20506;-92
2023/08/21 07:56:49;;;;;;;11.73;4.30;;;;;;;22.75;100.00;101238.13;4983187;28;20451;-89
2023/08/21 07:59:14;;;;;;;15.00;5.10;;;;;;;22.76;100.00;101003.03;4991596;28;20042;-90
2023/08/21 08:01:40;;;;;;;11.90;4.10;;;;;;;22.90;100.00;101005.50;4981428;28;20037;-89
2023/08/21 08:04:05;;;;;;;12.50;4.03;;;;;;;23.41;100.00;100881.28;4997470;28;20643;-89
2023/08/21 08:06:31;;;;;;;7.67;4.03;;;;;;;22.92;100.00;100867.25;5006638;28;20103;-91
2023/08/21 08:08:57;;;;;;;14.52;5.20;;;;;;;23.28;100.00;100975.03;5006753;28;20858;-89
2023/08/21 08:11:23;;;;;;;11.90;3.63;;;;;;;23.11;100.00;100675.44;4996771;28;20056;-90
2023/08/21 08:13:48;;;;;;;9.15;3.33;;;;;;;23.54;100.00;100897.34;4998361;28;20041;-89
2023/08/21 08:16:13;;;;;;;11.35;3.60;;;;;;;22.56;100.00;100662.47;5009166;28;20041;-90
2023/08/21 08:18:39;;;;;;;8.13;4.00;;;;;;;22.41;100.00;100779.16;5000639;28;20507;-90
2023/08/21 08:21:04;;;;;;;9.27;3.58;;;;;;;23.54;100.00;100896.53;4997551;28;20107;-90
2023/08/21 08:23:30;;;;;;;10.63;3.28;;;;;;;24.23;100.00;100948.13;5003344;28;20499;-89
2023/08/21 08:25:55;;;;;;;10.10;3.50;;;;;;;23.61;100.00;100758.22;5006588;28;20048;-90
2023/08/21 08:28:20;;;;;;;8.10;3.20;;;;;;;23.75;100.00;101023.13;4999225;28;20030;-89
2023/08/21 08:30:46;;;;;;;10.52;3.05;;;;;;;22.90;100.00;100954.63;5000131;28;20132;-90
2023/08/21 08:33:11;;;;;;;10.13;2.47;;;;;;;23.90;100.00;100883.53;5005635;28;20048;-89
2023/08/21 08:35:36;;;;;;;9.98;3.17;;;;;;;24.33;100.00;100952.94;4998845;28;20049;-90
2023/08/21 08:38:02;;;;;;;8.03;2.00;;;;;;;24.36;100.00;100568.56;5010443;28;20018;-91
2023/08/21 08:40:27;;;;;;;7.97;3.53;;;;;;;24.30;100.00;100708.72;5026512;28;20406;-88
2023/08/21 08:42:53;;;;;;;13.90;3.05;;;;;;;24.32;100.00;100397.50;5009778;28;20439;-89
2023/08/21 08:45:30;;;;;;;9.05;3.42;;;;;;;23.68;100.00;100586.34;4992084;28;20021;-89
2023/08/21 08:47:59;;;;;;;8.60;3.08;;;;;;;23.63;100.00;100550.88;5009819;28;20037;-89
2023/08/21 08:50:27;;;;;;;9.32;2.22;;;;;;;24.02;100.00;100870.63;4998517;28;20022;-89
2023/08/21 08:52:53;;;;;;;6.43;2.47;;;;;;;24.44;100.00;100796.47;5006417;28;20038;-89
2023/08/21 08:55:19;;;;;;;11.70;2.90;;;;;;;24.88;100.00;100631.84;5003843;28;20033;-90
2023/08/21 08:57:44;;;;;;;;;;;;;;;25.47;100.00;100705.50;5009234;28;20033;-90
2023/08/21 09:00:10;;;;;;;5.70;2.15;;;;;;;24.78;100.00;100442.31;4990357;28;19913;-89
2023/08/21 09:02:36;;;;;;;8.05;2.00;;;;;;;24.23;99.72;100298.97;5009872;28;20176;-89
2023/08/21 09:05:01;;;;;;;8.50;2.13;;;;;;;24.08;100.00;100367.06;4997201;28;20034;-89
2023/08/21 09:07:26;;;;;;;6.40;2.10;;;;;;;25.46;98.96;100625.44;5007480;28;20049;-89
2023/08/21 09:09:52;;;;;;;8.75;3.08;;;;;;;25.36;95.21;100354.06;5009888;28;20724;-90
2023/08/21 09:12:19;;;;;;;5.82;1.75;;;;;;;25.48;94.37;100381.97;4993985;28;20014;-91
2023/08/21 09:14:45;;;;;;;7.65;1.80;;;;;;;25.56;92.35;100263.06;5002773;28;20457;-89
2023/08/21 09:17:10;;;;;;;6.40;2.60;;;;;;;25.33;90.43;100179.75;5009392;28;20034;-88
2023/08/21 09:19:36;;;;;;;10.13;1.80;;;;;;;26.69;86.37;100207.00;5026083;28;20044;-90
2023/08/21 09:22:09;;;;;;;5.43;2.00;;;;;;;25.17;85.09;99707.22;4993963;28;20781;-89
2023/08/21 09:24:34;;;;;;;4.93;1.90;;;;;;;25.75;87.02;100132.09;5017808;28;20045;-88
2023/08/21 09:27:01;;;;;;;5.57;1.42;;;;;;;26.57;83.79;100097.00;5022360;28;20581;-90
2023/08/21 09:29:27;;;;;;;6.35;1.35;;;;;;;26.38;82.54;99970.94;4999273;28;20147;-90
2023/08/21 09:31:56;;;;;;;6.65;1.55;;;;;;;26.51;81.43;99994.94;5009358;28;20204;-91
2023/08/21 09:34:21;;;;;;;4.50;1.30;;;;;;;27.26;79.76;100099.75;5012562;28;20038;-89
2023/08/21 09:36:54;;;;;;;6.82;2.22;;;;;;;27.30;76.52;99800.19;5005506;28;20045;-89
2023/08/21 09:39:19;;;;;;;9.13;1.67;;;;;;;26.81;76.78;99721.13;5012994;28;20083;-89
2023/08/21 09:41:56;;;;;;;5.53;2.13;;;;;;;27.08;75.76;99791.69;5012979;28;20025;-89
2023/08/21 09:44:21;;;;;;;7.80;2.65;;;;;;;26.36;74.17;99508.00;5028602;28;20041;-89
2023/08/21 09:46:48;;;;;;;6.73;1.23;;;;;;;26.19;73.55;99414.75;4997102;28;20076;-90
2023/08/21 09:49:16;;;;;;;6.53;2.38;;;;;;;26.59;73.61;99620.47;5015649;28;20371;-89
2023/08/21 09:51:44;;;;;;;5.03;1.58;;;;;;;26.34;72.19;99392.63;4992980;28;20152;-92
2023/08/21 09:54:11;;;;;;;4.47;2.13;;;;;;;26.95;73.95;99850.78;4984206;28;20109;-89
2023/08/21 09:56:37;;;;;;;5.00;2.05;;;;;;;26.79;71.58;99488.75;5001150;28;20044;-90
2023/08/21 09:59:03;;;;;;;4.28;1.05;;;;;;;26.25;71.00;99347.91;4995786;28;20059;-91
2023/08/21 10:01:33;;;;;;;6.97;1.33;;;;;;;27.42;72.80;99955.13;5012277;28;20120;-90
2023/08/21 10:04:02;;;;;;;3.22;1.20;;;;;;;26.09;71.35;99375.50;5027847;28;20044;-90
2023/08/21 10:06:29;;;;;;;3.33;1.40;;;;;;;25.69;73.15;99565.53;5013150;28;20177;-90
2023/08/21 10:08:56;;;;;;;6.10;1.45;;;;;;;24.78;73.93;99377.78;5007811;28;20066;-91
2023/08/21 10:11:22;;;;;;;6.40;1.52;;;;;;;25.47;78.59;100142.56;5022213;28;20518;-92
2023/08/21 10:13:52;;;;;;;5.47;1.52;;;;;;;26.36;74.79;99951.25;4991081;28;20175;-89
2023/08/21 10:16:21;;;;;;;7.10;1.30;;;;;;;27.10;73.01;99982.06;4999481;28;20029;-89
2023/08/21 10:18:47;;;;;;;6.30;1.40;;;;;;;27.71;69.17;99667.91;5021918;28;20029;-89
2023/08/21 10:21:17;;;;;;;5.40;1.50;;;;;;;27.76;71.80;100018.81;4989203;28;20041;-89
2023/08/21 10:23:47;;;;;;;7.80;1.42;;;;;;;28.23;70.44;100029.16;5005289;28;20034;-91
2023/08/21 10:26:13;;;;;;;4.10;1.20;;;;;;;28.39;67.71;99734.94;5006009;28;20037;-90
2023/08/21 10:28:47;;;;;;;7.68;2.35;;;;;;;28.12;66.92;99584.84;5004739;28;20091;-89
2023/08/21 10:31:26;;;;;;;4.30;1.10;;;;;;;27.56;68.58;99670.97;4999135;28;20148;-90
2023/08/21 10:33:51;;;;;;;6.75;1.33;;;;;;;28.35;65.44;99489.66;5004734;28;20037;-90
2023/08/21 10:36:37;;;;;;;8.85;1.50;;;;;;;28.85;63.29;99409.06;4995646;28;20116;-89
2023/08/21 10:39:04;;;;;;;6.95;1.30;;;;;;;26.58;63.86;98767.75;4993815;28;20141;-91
2023/08/21 10:41:30;;;;;;;5.15;1.42;;;;;;;26.02;67.66;99177.41;5018696;28;20021;-90
2023/08/21 10:43:55;;;;;;;4.15;1.20;;;;;;;25.35;71.00;99476.28;5001394;28;20092;-90
2023/08/21 10:46:21;;;;;;;6.65;1.35;;;;;;;25.10;73.36;99657.59;5002044;28;20037;-89
2023/08/21 10:48:46;;;;;;;8.20;1.30;;;;;;;24.92;74.33;99753.81;4993920;28;20065;-91
2023/08/21 10:51:13;;;;;;;5.43;1.37;;;;;;;26.48;71.17;99841.41;4994123;28;20125;-90
2023/08/21 10:53:39;;;;;;;6.53;1.98;;;;;;;27.22;71.66;100118.66;4985115;28;20333;-90
2023/08/21 10:56:06;;;;;;;2.65;0.95;;;;;;;28.17;67.41;99889.31;4996676;28;20041;-89
2023/08/21 10:58:51;;;;;;;5.70;1.50;;;;;;;27.34;67.04;99562.78;4998315;28;20754;-91
2023/08/21 11:01:16;;;;;;;6.90;1.48;;;;;;;27.62;63.20;99224.84;4982792;28;20033;-89
2023/08/21 11:03:46;;;;;;;3.50;0.90;;;;;;;27.95;61.87;99138.41;5004896;28;20041;-91
2023/08/21 11:06:12;;;;;;;4.57;0.77;;;;;;;26.31;60.26;98411.22;5010135;28;20038;-90
2023/08/21 11:08:37;;;;;;;3.03;1.07;;;;;;;26.46;59.89;98535.75;5008781;28;20025;-92
2023/08/21 11:11:04;;;;;;;2.65;0.93;;;;;;;27.56;60.52;99111.78;4993194;28;20285;-90